Historique des mesures à Cassis (13260), France
Quotidien Résumé Janvier 21, 2018 Unités:  Métrique/US    US   Métrique
« Précédent (Jour)
Suivant (Jour) »
Quotidien Hebdomadaire Mensuel Annuel Période au choix
  Maximum: Minimum: Moyenne:
Température: 32 °F /  TemperatureC °C 55.9 °F /  13.3 °C 57.2 °F /  14 °C
Point de rosée: 32 °F /  DewpointC °C 36.3 °F /  2.4 °C 43.5 °F /  6.4 °C
Humidité: Humidity % 43 % 58 %
Vitesse du vent: WindSpeedKMH mph /  0 km/h - 23.9 mph /  38.5 km/h
Rafales: WindSpeedGustKMH mph /  0 km/h - -
Vent:- - WNW
Pression: 0 in /  PressurehPa hPa 29.7 in /  1005.0 hPa -
Précipitations: 0.0 in /  0 mm    
Historical Graphs
 
 
Mesures pour : Janvier 21, 2018
Heure Temperature Point de rosée Pression Vent Vitesse du vent Rafales Humidité Pluie (par heure)
32 °F /  TemperatureC °C 32 °F /  DewpointC °C 0 in /  PressurehPa hPa Calm     Humidity % HourlyPrecipMM in /  0 mm
00:12 55.9 °F /  13.3 °C 49.8 °F /  9.9 °C 29.7 in /  1006.3 hPa West 25.9 mph /  41.7 km/h 31.4 mph /  50.5 km/h 80 % 0.0 in /  0 mm
01:12 56.1 °F /  13.4 °C 50 °F /  10.0 °C 29.7 in /  1005.6 hPa West 31.4 mph /  50.5 km/h 31.7 mph /  51 km/h 80 % 0.0 in /  0 mm
02:12 57 °F /  13.9 °C 50.2 °F /  10.1 °C 29.7 in /  1005.3 hPa West 33.8 mph /  54.4 km/h 38.9 mph /  62.6 km/h 78 % 0.0 in /  0 mm
03:12 57 °F /  13.9 °C 50.2 °F /  10.1 °C 29.7 in /  1006.0 hPa NW 13.0 mph /  20.9 km/h 24.5 mph /  39.4 km/h 78 % 0.0 in /  0 mm
04:12 57 °F /  13.9 °C 49.8 °F /  9.9 °C 29.7 in /  1005.3 hPa WNW 23.3 mph /  37.5 km/h 38.1 mph /  61.3 km/h 77 % 0.0 in /  0 mm
05:12 57 °F /  13.9 °C 48.7 °F /  9.3 °C 29.7 in /  1005.3 hPa WNW 32.8 mph /  52.8 km/h 33.1 mph /  53.3 km/h 74 % 0.0 in /  0 mm
06:12 57.9 °F /  14.4 °C 44.2 °F /  6.8 °C 29.7 in /  1005.0 hPa NNW 10.5 mph /  16.9 km/h 21.6 mph /  34.8 km/h 60 % 0.0 in /  0 mm
07:12 57.9 °F /  14.4 °C 42.3 °F /  5.7 °C 29.7 in /  1005.3 hPa WNW 36.7 mph /  59.1 km/h 36.7 mph /  59.1 km/h 56 % 0.0 in /  0 mm
08:12 57 °F /  13.9 °C 41.9 °F /  5.5 °C 29.7 in /  1006.3 hPa NW 17.2 mph /  27.7 km/h 24.8 mph /  39.9 km/h 57 % 0.0 in /  0 mm
10:12 57.9 °F /  14.4 °C 38.8 °F /  3.8 °C 29.8 in /  1007.7 hPa WNW 19.8 mph /  31.9 km/h 19.8 mph /  31.9 km/h 49 % 0.0 in /  0 mm
11:12 58.8 °F /  14.9 °C 36.3 °F /  2.4 °C 29.8 in /  1008.4 hPa NW 32.0 mph /  51.5 km/h 33.8 mph /  54.4 km/h 43 % 0.0 in /  0 mm
12:12 59.4 °F /  15.2 °C 37.9 °F /  3.3 °C 29.8 in /  1009.4 hPa NNW 31.7 mph /  51 km/h 31.7 mph /  51 km/h 45 % 0.0 in /  0 mm
13:12 59.9 °F /  15.5 °C 39.6 °F /  4.2 °C 29.8 in /  1008.7 hPa WNW 30.9 mph /  49.7 km/h 30.9 mph /  49.7 km/h 47 % 0.0 in /  0 mm
14:12 59.9 °F /  15.5 °C 40.1 °F /  4.5 °C 29.8 in /  1009.0 hPa WNW 28.5 mph /  45.9 km/h 33.1 mph /  53.3 km/h 48 % 0.0 in /  0 mm
15:12 59.9 °F /  15.5 °C 41.4 °F /  5.2 °C 29.8 in /  1009.0 hPa WNW 23.0 mph /  37 km/h 31.7 mph /  51 km/h 50 % 0.0 in /  0 mm
16:12 59.5 °F /  15.3 °C 41.4 °F /  5.2 °C 29.8 in /  1009.4 hPa WNW 36.4 mph /  58.6 km/h 36.4 mph /  58.6 km/h 51 % 0.0 in /  0 mm
17:12 58.8 °F /  14.9 °C 42.3 °F /  5.7 °C 29.8 in /  1009.4 hPa NNW 27.4 mph /  44.1 km/h 27.4 mph /  44.1 km/h 54 % 0.0 in /  0 mm
18:12 58.6 °F /  14.8 °C 43.3 °F /  6.3 °C 29.8 in /  1010.0 hPa West 22.7 mph /  36.5 km/h 22.7 mph /  36.5 km/h 57 % 0.0 in /  0 mm
19:12 59.4 °F /  15.2 °C 44.4 °F /  6.9 °C 29.8 in /  1010.4 hPa NW 14.8 mph /  23.8 km/h 24.1 mph /  38.8 km/h 58 % 0.0 in /  0 mm
20:12 59.2 °F /  15.1 °C 44.8 °F /  7.1 °C 29.9 in /  1011.1 hPa NW 24.5 mph /  39.4 km/h 24.5 mph /  39.4 km/h 59 % 0.0 in /  0 mm
21:12 59.5 °F /  15.3 °C 45.7 °F /  7.6 °C 29.9 in /  1011.7 hPa NNE 23.8 mph /  38.3 km/h 23.8 mph /  38.3 km/h 60 % 0.0 in /  0 mm
23:12 59.2 °F /  15.1 °C 46.2 °F /  7.9 °C 29.9 in /  1012.4 hPa NNW 9.7 mph /  15.6 km/h 29.4 mph /  47.3 km/h 62 % 0.0 in /  0 mm
Observations météo à CASSIS
WU-History script by Weather Underground - 1 mb